createdAt,value
2023-03-29T00:02:52.904Z,500.00
2023-03-29T00:06:53.828Z,500.00
2023-03-29T00:10:53.950Z,400.00
2023-03-29T00:14:54.104Z,433.00
2023-03-29T00:18:54.634Z,500.00
2023-03-29T00:22:54.687Z,501.00
2023-03-29T00:26:54.709Z,500.00
2023-03-29T00:30:54.870Z,505.00
2023-03-29T00:34:54.999Z,503.00
2023-03-29T00:38:55.155Z,500.00
2023-03-29T00:42:55.343Z,505.00
2023-03-29T00:46:55.538Z,503.00
2023-03-29T00:50:55.755Z,507.00
2023-03-29T00:54:55.924Z,503.00
2023-03-29T00:58:56.122Z,502.00
2023-03-29T01:02:56.422Z,503.00
2023-03-29T01:10:55.680Z,508.00
2023-03-29T01:18:56.084Z,503.00
2023-03-29T02:58:57.853Z,506.00
2023-03-29T03:06:57.750Z,506.00
2023-03-29T03:14:57.708Z,506.00
2023-03-29T03:22:57.587Z,503.00
2023-03-29T03:34:57.665Z,506.00
2023-03-29T03:42:57.586Z,504.00
2023-03-29T03:50:57.506Z,502.00
2023-03-29T03:58:57.601Z,512.00
2023-03-29T04:06:57.527Z,506.00
2023-03-29T04:14:57.454Z,508.00
2023-03-29T04:26:57.481Z,509.00
2023-03-29T04:34:57.427Z,506.00
2023-03-29T04:42:57.344Z,510.00
2023-03-29T04:50:57.282Z,508.00
2023-03-29T04:58:57.508Z,504.00
2023-03-29T05:06:57.459Z,508.00
2023-03-29T05:10:58.402Z,508.00
2023-03-29T05:18:57.328Z,508.00
2023-03-29T05:26:57.433Z,506.00
2023-03-29T05:38:57.680Z,528.00
2023-03-29T05:46:57.671Z,553.00
2023-03-29T05:50:58.750Z,585.00
2023-03-29T05:54:58.557Z,631.00
2023-03-29T06:03:03.719Z,659.00
2023-03-29T06:10:57.920Z,660.00
2023-03-29T06:18:58.665Z,659.00
2023-03-29T13:03:20.464Z,1713.00
2023-03-29T13:07:21.378Z,1418.00
2023-03-29T13:11:21.241Z,1425.00
2023-03-29T13:15:21.822Z,1388.00
2023-03-29T13:19:21.309Z,1482.00
2023-03-29T13:23:21.730Z,1590.00
2023-03-29T17:51:24.505Z,1015.00
2023-03-29T17:55:25.674Z,1014.00
2023-03-29T17:59:25.842Z,1030.00
2023-03-29T18:03:26.335Z,1019.00
2023-03-29T18:07:26.284Z,1007.00
2023-03-29T18:11:26.334Z,1000.00
2023-03-29T18:15:26.331Z,982.00
2023-03-29T18:19:26.463Z,987.00
2023-03-29T18:23:26.601Z,987.00
2023-03-29T18:27:26.766Z,985.00
2023-03-29T18:31:27.332Z,977.00
2023-03-29T18:35:29.845Z,967.00
2023-03-29T18:39:27.360Z,961.00
2023-03-29T18:43:27.344Z,957.00
2023-03-29T18:47:27.416Z,953.00
2023-03-29T18:51:27.305Z,946.00
2023-03-29T18:55:26.890Z,930.00
2023-03-29T18:59:26.885Z,928.00
2023-03-29T19:03:26.921Z,929.00
2023-03-29T19:07:27.331Z,927.00
2023-03-29T19:11:28.932Z,913.00
2023-03-29T19:15:27.402Z,911.00
2023-03-29T19:19:27.329Z,896.00
2023-03-29T19:23:27.358Z,894.00
2023-03-29T19:27:27.341Z,882.00
2023-03-29T19:31:27.389Z,885.00
2023-03-29T19:35:26.945Z,872.00
2023-03-29T19:39:26.886Z,870.00
2023-03-29T19:43:27.339Z,871.00
2023-03-29T19:47:27.408Z,873.00
2023-03-29T19:51:27.440Z,846.00
2023-03-29T19:55:27.628Z,847.00
2023-03-29T19:59:27.824Z,842.00
2023-03-29T20:03:28.054Z,833.00
2023-03-29T20:07:28.203Z,819.00
2023-03-29T20:11:28.390Z,820.00
2023-03-29T20:15:28.583Z,820.00
2023-03-29T20:19:28.908Z,800.00
2023-03-29T20:23:29.389Z,806.00
2023-03-29T20:27:29.160Z,792.00
2023-03-29T20:31:29.418Z,784.00
2023-03-29T20:35:29.592Z,791.00
2023-03-29T20:39:29.741Z,773.00
2023-03-29T20:43:29.925Z,770.00
2023-03-29T20:47:30.172Z,771.00
2023-03-29T20:51:30.433Z,759.00
2023-03-29T20:55:30.521Z,768.00
2023-03-29T20:59:30.722Z,751.00
2023-03-29T21:03:31.019Z,744.00
2023-03-29T21:07:31.146Z,738.00
2023-03-29T21:11:31.332Z,719.00
2023-03-29T21:15:31.561Z,721.00
2023-03-29T21:19:31.720Z,705.00
2023-03-29T21:23:31.938Z,725.00
2023-03-29T21:27:32.395Z,706.00
2023-03-29T21:31:32.437Z,698.00
2023-03-29T22:27:34.468Z,650.00
2023-03-29T22:31:35.315Z,649.00
2023-03-29T22:35:35.545Z,645.00
2023-03-29T22:39:35.700Z,650.00
2023-03-29T22:43:35.940Z,644.00
2023-03-29T22:47:36.170Z,639.00
2023-03-29T22:51:36.332Z,638.00
2023-03-29T22:55:36.501Z,634.00
2023-03-29T22:59:36.751Z,634.00
2023-03-29T23:03:37.000Z,634.00
